ΕΜΥ, Εθνική Μετεωρολογική Υπηρεσία - Δελτία Καιρού, Προγνώσεις

ΑΕΡΟΝΑΥΤΙΛΙΑ

GREEK AIRPORTS CODES

TAF LGAV 030500Z 0306/0406 VRB05KT 9999 FEW025 BECMG 0307/0309 36015KT BECMG 0322/0324 24012KT PROB30 TEMPO 0309/0312 FEW018TCU SCT020 BKN070=

EUROPEAN AIRPORTS CODES